Terminal Aerodrome Forecast
Issued by NWS Cleveland, OH

Home | Current Version | Previous Version | Graphics & Text | Print | Product List | Glossary On
Versions: 1 2 3 4 5 6 7 8 9 10 11 12 13 14 15 16 17 18 19 20 21 22 23 24
860
FTUS41 KCLE 301408 AAA
TAFMFD
TAF AMD
KMFD 301408Z 3014/0112 09012G20KT 6SM BR VCSH OVC010
     FM301800 09012G20KT 5SM -SHRA BR OVC015
     FM010400 12008KT 5SM BR VCSH OVC006=

USA.gov is the U.S. government's official web portal to all federal, state and local government web resources and services.